[source: ADDS]
METAR
EDVE 232050Z AUTO 18003KT 9999 FEW003/// 11/10 Q1011

TAF EDVE 231700Z 2318/2321 VRB03KT 3500 BR SCT012 TEMPO 2318/2321 2000 RA BR BKN004 PROB30 TEMPO 2318/2321 1200 BCFG EDDV 232050Z 19004KT 6000 NSC 11/11 Q1010 TEMPO 3000

TAF EDDV 231700Z 2318/2418 22004KT 4500 BR SCT040 PROB40 TEMPO 2318/2323 1100 BCFG BECMG 2323/2401 22009KT 9999 PROB40 TEMPO 2401/2407 4500 BR ETHS 232020Z AUTO 20005KT 0650 // ////// 12/11 Q1010 ///

TAF AMD ETHS 230924Z 2308/2317 23005KT 1500 BR BKN002 TEMPO 2308/2310 22003KT 0500 FG OVC001 BECMG 2310/2312 23007KT 4000 BR BKN010 BKN090 TEMPO 2312/2317 24005KT 8000 -RA SCT012 BKN060 ETHC 232020Z AUTO 20002KT 0100 // ////// 11/11 Q1010 ///

EDVK 232020Z 16003KT 100V250 9999 FEW034 11/11 Q1012

TAF EDVK 231700Z 2318/2403 20005KT 9999 SCT008 BKN020 TEMPO 2318/2320 4000 SHRA BKN008 BKN015CB
TAF
TAF EDVE 231700Z 2318/2321 VRB03KT 3500 BR SCT012 TEMPO 2318/2321 2000 RA BR BKN004 PROB30 TEMPO 2318/2321 1200 BCFG

TAF EDDV 231700Z 2318/2418 22004KT 4500 BR SCT040 PROB40 TEMPO 2318/2323 1100 BCFG BECMG 2323/2401 22009KT 9999 PROB40 TEMPO 2401/2407 4500 BR

TAF AMD ETHS 230924Z 2308/2317 23005KT 1500 BR BKN002 TEMPO 2308/2310 22003KT 0500 FG OVC001 BECMG 2310/2312 23007KT 4000 BR BKN010 BKN090 TEMPO 2312/2317 24005KT 8000 -RA SCT012 BKN060

TAF EDVK 231700Z 2318/2403 20005KT 9999 SCT008 BKN020 TEMPO 2318/2320 4000 SHRA BKN008 BKN015CB

SR / SS: 05:57 / 16:06 UTC (EDVE 2020-10-23)
Ilya hat seine praktische PPL(A)-Prüfung bestanden! Gratulation und weiterhin Happy Landings! +++ Michael hat seinen ersten Alleinflug absolviert! Herzlichen Glückwunsch und weiterhin Happy Landings! +++ Torsten hat seine Prüferberechtigung zum CRE erhalten, herzlichen Glückwunsch! +++ Wir begrüßen Holger als neues Mitglied der FFG! Viel Erfolg bei der Ausbildung! +++ Willkommen in der FFG, Timon! Viel Erfolg bei der Ausbildung! +++ Florian hat seine Fluglehrer-Anwärterzeit beendet. Wir wünschen weiterhin viel Erfolg beim Ausbilden! +++ Wir begrüßen Stefan in den Reihen der FFG! Viel Erfolg bei der Ausbildung! +++ Herzlich willkommen Dominic! Viel Spass bei der Ausbildung! +++ Wir heißen Fabian als neuen Flugschüler willkommen und wünschen eine erfolgreiche Ausbildung! +++ Wir begrüßen Oussama als neues Mitglied der FFG! Viel Erfolg bei der Ausbildung!

wenig -> mittel -> viel

Professionelle Piloten arbeiten mit Checkliste
Ausdrucken und abarbeiten! Vorbereitete Links helfen bei der Beschaffung der notwendigen Informationen.

Weiterlesen ...

Hier gibt es die AIP mit allen erforderlichen Karten die im Abo der FFG liegen zum Download für unsere Mitglieder.

Letztes NOTAM EDVE
von 23.10.2020 1328Z bis 31.12.2020 2359Z
SAT, SUN, HOL AD RFFS 1 ONLY. ACFT LARGER THAN 2000KG MTOM AND 4 POB PPR. REQ FOR RFFS INCREASES UP TO RFFS 6 FOR FLT ON THE NEXT DAY [more]

Letztes NOTAM EDCB
von 01.09.2020 0700Z bis 24.10.2020 2359Z
0700-1600
HOURS OF OPERATION CHANGED: 0700-1600, OTHER TIMES PPR.

Letztes NOTAM EDBC
von 16.10.2020 0804Z bis 12.01.2021 2359Z
ILS RWY 26 OUT OF SERVICE.

Letztes NOTAM EDVM
von 26.09.2020 1557Z bis PERM
DROPPING ZONE HILDESHEIM 521047N 0095644E, HOURS OF OPERATION DAILY SR-SS+30. AIP GERMANY ENR 5.5-2 REFERS.
GND- FL100

Letztes NOTAM EDDV
von 29.10.2020 0600Z bis 14.11.2020 1600Z
MON-SAT 0600-1600
LIFTING PLATFORM IN DEP SECTOR RWY 27L FOR ALL IFR DEP. PSN 522717N 0093941E. ELEV 237FT /60FT AGL. NOT MARKED A [more]


Letztes NOTAM EDVK
von 23.10.2020 0649Z bis 18.01.2021 2359Z
PDG DUE TO OBSTACLES RAISED TO 4 PER CENT (250FT/NM) UNTIL PASSING 1200FT MSL FOR XAROL 2N, WRB 9N, LUXUX 2N, WERRA 7N DUE TO NEW OBST [more]

Letztes NOTAM EDVS
von 03.08.2020 0917Z bis 01.11.2020 2359Z
AD AVBL ONLY FOR HOMEBASED PILOTS.

          aerodata150     Radio38